1881 Hurricane NOT_NAMED (1881208N35286)


IBTrACS version v04r00. Visit IBTrACS website for data access.
Please direct all questions to the IBTrACS Q and A forum

Storm track - Intensity - Wind Radii - Intensity Data - Source Data - All data

Summary Information

Storm ID 1881208N35286
Start Jul 26 12Z
Landfall Jul 30 09Z, Aug 3 06Z
Max Intensity 65 kt (Jul 27 12Z)
End Aug 3 18Z
ATCF IDs
Track status Best track data.

Storm track plot

Map of storm track

Intensity plots

Map of storm track

Radial wind information

No radial wind information for this storm


Position and Intensity Table

BASIN ISO_TIME_________ NATURE LAT LON MLC WIND
degrees north degrees east kts
NA 1881-07-26 12:00:00 TS 34.50 -73.70 30
NA 15:00:00 TS 34.50 -73.55 32
NA 18:00:00 TS 34.50 -73.40 35
NA 21:00:00 TS 34.50 -73.25 42
NA 1881-07-27 00:00:00 TS 34.50 -73.10 50
NA 03:00:00 TS 34.50 -72.95 55
NA 06:00:00 TS 34.50 -72.80 60
NA 09:00:00 TS 34.52 -72.64 62
NA 12:00:00 TS 34.50 -72.50 65
NA 15:00:00 TS 34.47 -72.43 65
NA 18:00:00 TS 34.30 -72.40 65
NA 21:00:00 TS 33.90 -72.38 65
NA 1881-07-28 00:00:00 TS 33.40 -72.40 65
NA 03:00:00 TS 32.96 -72.49 65
NA 06:00:00 TS 32.50 -72.60 65
NA 09:00:00 TS 32.00 -72.68 65
NA 12:00:00 TS 31.50 -72.80 65
NA 15:00:00 TS 31.04 -73.04 65
NA 18:00:00 TS 30.60 -73.30 65
NA 21:00:00 TS 30.15 -73.44 65
NA 1881-07-29 00:00:00 TS 29.70 -73.70 65
NA 03:00:00 TS 29.25 -74.28 57
NA 06:00:00 TS 28.80 -75.00 50
NA 09:00:00 TS 28.31 -75.65 42
NA 12:00:00 TS 27.90 -76.30 35
NA 15:00:00 TS 27.65 -76.96 32
NA 18:00:00 TS 27.50 -77.60 30
NA 21:00:00 TS 27.38 -78.21 27
NA 1881-07-30 00:00:00 DS 27.30 -78.80 25
NA 03:00:00 DS 27.24 -79.40 22
NA 06:00:00 DS 27.20 -80.00 20
NA 09:00:00 DS 27.15 -80.60 20
NA 12:00:00 DS 27.10 -81.20 20
NA 15:00:00 DS 27.05 -81.80 20
NA 18:00:00 DS 27.00 -82.40 20
NA 21:00:00 DS 26.95 -83.00 20
NA 1881-07-31 00:00:00 DS 26.90 -83.60 20
NA 03:00:00 DS 26.84 -84.20 20
NA 06:00:00 DS 26.80 -84.80 20
NA 09:00:00 DS 26.79 -85.41 20
NA 12:00:00 DS 26.80 -86.00 20
NA 15:00:00 DS 26.80 -86.55 20
NA 18:00:00 DS 26.80 -87.00 20
NA 21:00:00 DS 26.78 -87.31 20
NA 1881-08-01 00:00:00 DS 26.80 -87.50 20
NA 03:00:00 DS 26.88 -87.62 20
NA 06:00:00 DS 27.00 -87.70 20
NA 09:00:00 DS 27.15 -87.80 20
NA 12:00:00 DS 27.30 -87.90 20
NA 15:00:00 DS 27.41 -88.00 20
NA 18:00:00 DS 27.50 -88.10 20
NA 21:00:00 DS 27.59 -88.20 22
NA 1881-08-02 00:00:00 DS 27.70 -88.30 25
NA 03:00:00 DS 27.83 -88.40 27
NA 06:00:00 TS 28.00 -88.50 30
NA 09:00:00 TS 28.22 -88.61 32
NA 12:00:00 TS 28.50 -88.70 35
NA 15:00:00 TS 28.83 -88.76 37
NA 18:00:00 TS 29.20 -88.80 40
NA 21:00:00 TS 29.53 -88.77 40
NA 1881-08-03 00:00:00 TS 29.90 -88.80 40
NA 03:00:00 TS 30.35 -89.00 35
NA 06:00:00 TS 30.80 -89.30 30
NA 09:00:00 TS 31.17 -89.69 30
NA 12:00:00 TS 31.50 -90.00 30
NA 15:00:00 TS 31.84 -90.08 30
NA 18:00:00 TS 32.20 -90.00 30

Source Information

Agency Information
USA
TOKYO
CMA
HKO
NEWDELHI
REUNION
BOM
NADI
WELLINGTON
DS824
TD9636
TD9635
NEUMANN
MLC

All available IBTrACS Data

SEASON BASIN SUBBASIN ISO_TIME_________ NATURE LAT LON DIST2LAND LANDFALL IFLAG USA SSHS MLC LAT MLC LON MLC CLASS MLC WIND STORM SPEED STORM DIR
Year degrees north degrees east km km 1 degrees north degrees east kts kts degrees
1881 NA NA 1881-07-26 12:00:00 TS 34.50 -73.70 218 218 _____________O -1 34.50 -73.70 TD 30 2 90
1881 NA NA 15:00:00 TS 34.50 -73.55 232 225 _____________P -1 34.50 -73.55 TD 32 2 90
1881 NA NA 18:00:00 TS 34.50 -73.40 239 239 _____________O -1 34.50 -73.40 TS 35 2 90
1881 NA NA 21:00:00 TS 34.50 -73.25 254 254 _____________P -1 34.50 -73.25 TS 42 2 90
1881 NA NA 1881-07-27 00:00:00 TS 34.50 -73.10 261 261 _____________O -1 34.50 -73.10 TS 50 2 90
1881 NA NA 03:00:00 TS 34.50 -72.95 276 269 _____________P -1 34.50 -72.95 TS 55 2 90
1881 NA NA 06:00:00 TS 34.50 -72.80 284 284 _____________O -1 34.50 -72.80 TS 60 3 87
1881 NA NA 09:00:00 TS 34.52 -72.64 300 300 _____________P -1 34.52 -72.64 TS 62 2 90
1881 NA NA 12:00:00 TS 34.50 -72.50 308 308 _____________O -1 34.50 -72.50 HU 65 2 106
1881 NA NA 15:00:00 TS 34.47 -72.43 316 316 _____________P -1 34.47 -72.43 HU 65 2 157
1881 NA NA 18:00:00 TS 34.30 -72.40 327 327 _____________O -1 34.30 -72.40 HU 65 6 176
1881 NA NA 21:00:00 TS 33.90 -72.38 352 352 _____________P -1 33.90 -72.38 HU 65 9 0
1881 NA NA 1881-07-28 00:00:00 TS 33.40 -72.40 388 388 _____________O -1 33.40 -72.40 HU 65 10 185
1881 NA NA 03:00:00 TS 32.96 -72.49 408 408 _____________P -1 32.96 -72.49 HU 65 9 190
1881 NA NA 06:00:00 TS 32.50 -72.60 433 433 _____________O -1 32.50 -72.60 HU 65 10 190
1881 NA NA 09:00:00 TS 32.00 -72.68 463 463 _____________P -1 32.00 -72.68 HU 65 10 190
1881 NA NA 12:00:00 TS 31.50 -72.80 495 495 _____________O -1 31.50 -72.80 HU 65 10 198
1881 NA NA 15:00:00 TS 31.04 -73.04 525 520 _____________P -1 31.04 -73.04 HU 65 10 205
1881 NA NA 18:00:00 TS 30.60 -73.30 546 546 _____________O -1 30.60 -73.30 HU 65 10 201
1881 NA NA 21:00:00 TS 30.15 -73.44 589 584 _____________P -1 30.15 -73.44 HU 65 10 201
1881 NA NA 1881-07-29 00:00:00 TS 29.70 -73.70 616 600 _____________O -1 29.70 -73.70 HU 65 12 219
1881 NA NA 03:00:00 TS 29.25 -74.28 594 508 _____________P -1 29.25 -74.28 HU 57 14 232
1881 NA NA 06:00:00 TS 28.80 -75.00 508 429 _____________O -1 28.80 -75.00 TS 50 15 232
1881 NA NA 09:00:00 TS 28.31 -75.65 424 355 _____________P -1 28.31 -75.65 TS 42 15 232
1881 NA NA 12:00:00 TS 27.90 -76.30 355 310 _____________O -1 27.90 -76.30 TS 35 13 240
1881 NA NA 15:00:00 TS 27.65 -76.96 296 249 _____________P -1 27.65 -76.96 TS 32 12 251
1881 NA NA 18:00:00 TS 27.50 -77.60 249 190 _____________O -1 27.50 -77.60 TD 30 11 256
1881 NA NA 21:00:00 TS 27.38 -78.21 190 131 _____________P -1 27.38 -78.21 TD 27 11 259
1881 NA NA 1881-07-30 00:00:00 DS 27.30 -78.80 131 72 _____________O -1 27.30 -78.80 WV 25 11 263
1881 NA NA 03:00:00 DS 27.24 -79.40 72 19 _____________P -1 27.24 -79.40 WV 22 11 265
1881 NA NA 06:00:00 DS 27.20 -80.00 19 0 _____________O -1 27.20 -80.00 WV 20 11 265
1881 NA NA 09:00:00 DS 27.15 -80.60 0 0 _____________P -1 27.15 -80.60 WV 20 11 265
1881 NA NA 12:00:00 DS 27.10 -81.20 0 0 _____________O -1 27.10 -81.20 WV 20 11 265
1881 NA NA 15:00:00 DS 27.05 -81.80 0 0 _____________P -1 27.05 -81.80 WV 20 11 265
1881 NA GM 18:00:00 DS 27.00 -82.40 9 9 _____________O -1 27.00 -82.40 WV 20 11 265
1881 NA GM 21:00:00 DS 26.95 -83.00 59 59 _____________P -1 26.95 -83.00 WV 20 11 265
1881 NA GM 1881-07-31 00:00:00 DS 26.90 -83.60 108 108 _____________O -1 26.90 -83.60 WV 20 11 264
1881 NA GM 03:00:00 DS 26.84 -84.20 167 167 _____________P -1 26.84 -84.20 WV 20 11 265
1881 NA GM 06:00:00 DS 26.80 -84.80 224 224 _____________O -1 26.80 -84.80 WV 20 11 267
1881 NA GM 09:00:00 DS 26.79 -85.41 275 275 _____________P -1 26.79 -85.41 WV 20 11 270
1881 NA GM 12:00:00 DS 26.80 -86.00 329 329 _____________O -1 26.80 -86.00 WV 20 10 270
1881 NA GM 15:00:00 DS 26.80 -86.55 344 320 _____________P -1 26.80 -86.55 WV 20 9 270
1881 NA GM 18:00:00 DS 26.80 -87.00 320 302 _____________O -1 26.80 -87.00 WV 20 7 269
1881 NA GM 21:00:00 DS 26.78 -87.31 302 291 _____________P -1 26.78 -87.31 WV 20 4 270
1881 NA GM 1881-08-01 00:00:00 DS 26.80 -87.50 291 276 _____________O -1 26.80 -87.50 WV 20 3 288
1881 NA GM 03:00:00 DS 26.88 -87.62 276 262 _____________P -1 26.88 -87.62 WV 20 3 318
1881 NA GM 06:00:00 DS 27.00 -87.70 262 247 _____________O -1 27.00 -87.70 WV 20 3 330
1881 NA GM 09:00:00 DS 27.15 -87.80 237 223 _____________P -1 27.15 -87.80 WV 20 4 330
1881 NA GM 12:00:00 DS 27.30 -87.90 223 208 _____________O -1 27.30 -87.90 WV 20 3 326
1881 NA GM 15:00:00 DS 27.41 -88.00 208 193 _____________P -1 27.41 -88.00 WV 20 3 318
1881 NA GM 18:00:00 DS 27.50 -88.10 193 179 _____________O -1 27.50 -88.10 WV 20 3 316
1881 NA GM 21:00:00 DS 27.59 -88.20 179 164 _____________P -1 27.59 -88.20 WV 22 3 318
1881 NA GM 1881-08-02 00:00:00 DS 27.70 -88.30 164 150 _____________O -1 27.70 -88.30 WV 25 3 323
1881 NA GM 03:00:00 DS 27.83 -88.40 150 126 _____________P -1 27.83 -88.40 WV 27 3 330
1881 NA GM 06:00:00 TS 28.00 -88.50 126 101 _____________O -1 28.00 -88.50 TD 30 4 335
1881 NA GM 09:00:00 TS 28.22 -88.61 101 68 _____________P -1 28.22 -88.61 TD 32 5 340
1881 NA GM 12:00:00 TS 28.50 -88.70 68 36 _____________O -1 28.50 -88.70 TS 35 6 347
1881 NA GM 15:00:00 TS 28.83 -88.76 36 19 _____________P -1 28.83 -88.76 TS 37 7 353
1881 NA GM 18:00:00 TS 29.20 -88.80 22 22 _____________O -1 29.20 -88.80 TS 40 7 359
1881 NA GM 21:00:00 TS 29.53 -88.77 44 44 _____________P -1 29.53 -88.77 TS 40 7 0
1881 NA GM 1881-08-03 00:00:00 TS 29.90 -88.80 45 11 _____________O -1 29.90 -88.80 TS 40 8 346
1881 NA GM 03:00:00 TS 30.35 -89.00 11 0 _____________P -1 30.35 -89.00 TS 35 10 334
1881 NA NA 06:00:00 TS 30.80 -89.30 0 0 _____________O -1 30.80 -89.30 TD 30 10 324
1881 NA NA 09:00:00 TS 31.17 -89.69 0 0 _____________P -1 31.17 -89.69 TD 30 9 319
1881 NA NA 12:00:00 TS 31.50 -90.00 0 0 _____________O -1 31.50 -90.00 TD 30 8 334
1881 NA NA 15:00:00 TS 31.84 -90.08 0 0 _____________P -1 31.84 -90.08 TD 30 7 0
1881 NA NA 18:00:00 TS 32.20 -90.00 0 _____________O -1 32.20 -90.00 TD 30 7 12